createdAt,value
2022-10-02T00:02:33.793Z,100.00
2022-10-02T00:05:10.634Z,100.00
2022-10-02T00:07:52.406Z,100.00
2022-10-02T00:10:29.215Z,100.00
2022-10-02T00:12:58.668Z,100.00
2022-10-02T00:15:31.378Z,100.00
2022-10-02T00:18:10.164Z,100.00
2022-10-02T00:20:49.974Z,100.00
2022-10-02T00:23:49.017Z,100.00
2022-10-02T00:26:42.191Z,100.00
2022-10-02T00:29:33.730Z,100.00
2022-10-02T00:32:10.621Z,100.00
2022-10-02T00:35:15.159Z,100.00
2022-10-02T00:37:53.973Z,100.00
2022-10-02T00:40:26.799Z,100.00
2022-10-02T00:43:14.807Z,100.00
2022-10-02T00:46:27.521Z,100.00
2022-10-02T00:49:20.032Z,100.00
2022-10-02T00:52:12.714Z,100.00
2022-10-02T00:54:51.658Z,100.00
2022-10-02T00:57:56.426Z,100.00
2022-10-02T01:00:23.547Z,100.00
2022-10-02T01:03:11.127Z,100.00
2022-10-02T01:05:38.293Z,100.00
2022-10-02T01:08:06.048Z,100.00
2022-10-02T01:10:35.031Z,100.00
2022-10-02T01:13:01.946Z,100.00
2022-10-02T01:15:33.064Z,100.00
2022-10-02T01:18:02.313Z,100.00
2022-10-02T01:20:42.337Z,100.00
2022-10-02T01:23:17.008Z,100.00
2022-10-02T01:25:44.532Z,100.00
2022-10-02T01:28:12.129Z,100.00
2022-10-02T01:30:41.819Z,100.00
2022-10-02T01:33:11.019Z,100.00
2022-10-02T01:35:39.518Z,100.00
2022-10-02T01:38:10.048Z,100.00
2022-10-02T01:40:39.086Z,100.00
2022-10-02T01:43:29.542Z,100.00
2022-10-02T01:46:11.581Z,100.00
2022-10-02T01:49:13.099Z,100.00
2022-10-02T01:51:39.740Z,100.00
2022-10-02T01:54:34.235Z,100.00
2022-10-02T01:57:24.166Z,100.00
2022-10-02T01:59:59.545Z,100.00
2022-10-02T02:02:35.392Z,100.00
2022-10-02T02:05:20.894Z,100.00
2022-10-02T02:07:50.966Z,100.00
2022-10-02T02:10:25.218Z,100.00
2022-10-02T02:12:59.898Z,100.00
2022-10-02T02:15:36.899Z,100.00
2022-10-02T02:18:28.132Z,100.00
2022-10-02T02:21:13.707Z,100.00
2022-10-02T02:23:43.475Z,100.00
2022-10-02T02:26:12.631Z,100.00
2022-10-02T02:28:46.495Z,100.00
2022-10-02T02:31:19.351Z,100.00
2022-10-02T02:33:55.006Z,100.00
2022-10-02T02:36:27.212Z,100.00
2022-10-02T02:39:01.509Z,100.00
2022-10-02T02:41:34.972Z,100.00
2022-10-02T02:44:07.119Z,100.00
2022-10-02T02:46:59.604Z,100.00
2022-10-02T02:49:30.361Z,100.00
2022-10-02T02:51:59.878Z,100.00
2022-10-02T02:54:33.302Z,100.00
2022-10-02T02:57:01.583Z,100.00
2022-10-02T02:59:31.651Z,100.00
2022-10-02T03:01:59.049Z,100.00
2022-10-02T03:04:25.851Z,100.00
2022-10-02T03:07:01.096Z,100.00
2022-10-02T03:09:32.441Z,100.00
2022-10-02T03:12:14.261Z,100.00
2022-10-02T03:15:02.724Z,100.00
2022-10-02T03:17:40.199Z,100.00
2022-10-02T03:20:29.076Z,100.00
2022-10-02T03:23:01.284Z,100.00
2022-10-02T03:25:34.162Z,100.00
2022-10-02T03:28:12.068Z,100.00
2022-10-02T03:30:41.363Z,100.00
2022-10-02T03:33:12.195Z,100.00
2022-10-02T03:35:39.765Z,100.00
2022-10-02T03:38:09.832Z,100.00
2022-10-02T03:40:36.690Z,100.00
2022-10-02T03:43:04.776Z,100.00
2022-10-02T03:45:51.426Z,100.00
2022-10-02T03:48:18.187Z,100.00
2022-10-02T03:50:45.527Z,100.00
2022-10-02T03:53:20.477Z,100.00
2022-10-02T03:55:55.648Z,100.00
2022-10-02T03:58:22.650Z,100.00
2022-10-02T04:01:33.621Z,100.00
2022-10-02T04:04:14.294Z,100.00
2022-10-02T04:06:58.929Z,100.00
2022-10-02T04:09:37.085Z,100.00
2022-10-02T04:12:37.795Z,100.00
2022-10-02T04:15:15.146Z,100.00
2022-10-02T04:17:50.256Z,100.00
2022-10-02T04:20:23.811Z,100.00
2022-10-02T04:22:57.560Z,100.00
2022-10-02T04:25:29.921Z,100.00
2022-10-02T04:28:02.968Z,100.00
2022-10-02T04:30:30.373Z,100.00
2022-10-02T04:33:20.978Z,100.00
2022-10-02T04:36:03.377Z,100.00
2022-10-02T04:38:54.802Z,100.00
2022-10-02T04:41:46.526Z,100.00
2022-10-02T04:44:31.909Z,100.00
2022-10-02T04:47:19.443Z,100.00
2022-10-02T04:49:49.189Z,100.00
2022-10-02T04:52:49.905Z,100.00
2022-10-02T04:55:57.411Z,100.00
2022-10-02T04:59:05.689Z,100.00
2022-10-02T05:01:58.776Z,100.00
2022-10-02T05:04:52.053Z,100.00
2022-10-02T05:07:48.082Z,100.00
2022-10-02T05:10:29.985Z,100.00
2022-10-02T05:13:09.037Z,100.00
2022-10-02T05:15:44.673Z,100.00
2022-10-02T05:18:35.847Z,100.00
2022-10-02T05:21:44.211Z,100.00
2022-10-02T05:24:23.149Z,100.00
2022-10-02T05:27:23.221Z,100.00
2022-10-02T05:30:10.411Z,100.00
2022-10-02T05:33:18.112Z,100.00
2022-10-02T05:36:12.272Z,100.00
2022-10-02T05:38:54.852Z,100.00
2022-10-02T05:41:50.241Z,100.00
2022-10-02T05:44:22.164Z,100.00
2022-10-02T05:47:01.593Z,100.00
2022-10-02T05:49:35.183Z,100.00
2022-10-02T05:52:12.155Z,100.00
2022-10-02T05:54:47.577Z,100.00
2022-10-02T05:57:27.806Z,100.00
2022-10-02T06:00:12.325Z,100.00
2022-10-02T06:02:57.514Z,100.00
2022-10-02T06:05:31.192Z,100.00
2022-10-02T06:08:02.815Z,100.00
2022-10-02T06:10:32.063Z,100.00
2022-10-02T06:13:05.323Z,100.00
2022-10-02T06:15:55.723Z,100.00
2022-10-02T06:18:25.924Z,100.00
2022-10-02T06:21:00.957Z,100.00
2022-10-02T06:23:38.567Z,100.00
2022-10-02T06:26:13.187Z,100.00
2022-10-02T06:28:42.775Z,100.00
2022-10-02T06:31:40.288Z,100.00
2022-10-02T06:34:13.292Z,100.00
2022-10-02T06:37:01.744Z,100.00
2022-10-02T06:39:57.276Z,100.00
2022-10-02T06:42:49.628Z,100.00
2022-10-02T06:45:42.747Z,100.00
2022-10-02T06:48:24.917Z,100.00
2022-10-02T06:51:07.273Z,100.00
2022-10-02T06:53:51.264Z,100.00
2022-10-02T06:56:54.229Z,100.00
2022-10-02T07:00:00.130Z,96.54
2022-10-02T07:02:43.374Z,69.05
2022-10-02T07:05:28.770Z,57.58
2022-10-02T07:08:06.887Z,50.96
2022-10-02T07:10:48.693Z,48.00
2022-10-02T07:13:21.677Z,46.68
2022-10-02T07:16:09.846Z,44.76
2022-10-02T07:19:01.369Z,43.93
2022-10-02T07:21:41.779Z,42.93
2022-10-02T07:24:26.533Z,41.26
2022-10-02T07:27:09.366Z,38.75
2022-10-02T07:29:47.165Z,38.82
2022-10-02T07:32:31.147Z,37.64
2022-10-02T07:35:19.795Z,41.06
2022-10-02T07:38:05.228Z,39.98
2022-10-02T07:40:56.009Z,38.45
2022-10-02T07:43:43.980Z,38.67
2022-10-02T07:46:10.681Z,38.36
2022-10-02T07:48:44.150Z,36.39
2022-10-02T07:51:40.429Z,35.81
2022-10-02T07:54:16.164Z,35.19
2022-10-02T07:56:45.815Z,41.36
2022-10-02T07:59:16.317Z,42.57
2022-10-02T08:01:45.145Z,44.10
2022-10-02T08:04:19.000Z,50.59
2022-10-02T08:06:48.216Z,53.52
2022-10-02T08:09:18.351Z,56.87
2022-10-02T08:11:53.249Z,56.79
2022-10-02T08:14:30.978Z,50.84
2022-10-02T08:17:02.694Z,53.12
2022-10-02T08:19:35.400Z,54.13
2022-10-02T08:22:10.522Z,57.31
2022-10-02T08:24:43.070Z,60.72
2022-10-02T08:27:16.030Z,62.29
2022-10-02T08:29:52.287Z,65.55
2022-10-02T08:32:18.965Z,66.20
2022-10-02T08:34:45.689Z,64.45
2022-10-02T08:37:31.581Z,65.97
2022-10-02T08:40:36.238Z,62.48
2022-10-02T08:43:25.146Z,52.60
2022-10-02T08:46:10.872Z,48.26
2022-10-02T08:48:58.972Z,44.60
2022-10-02T08:52:02.666Z,39.22
2022-10-02T08:55:03.043Z,44.52
2022-10-02T08:57:44.823Z,50.40
2022-10-02T09:00:21.077Z,51.46
2022-10-02T09:03:05.971Z,56.84
2022-10-02T09:06:08.057Z,60.96
2022-10-02T09:08:57.479Z,55.81
2022-10-02T09:12:10.396Z,62.58
2022-10-02T09:14:50.564Z,61.18
2022-10-02T09:17:35.650Z,63.53
2022-10-02T09:20:05.218Z,60.25
2022-10-02T09:22:40.827Z,56.61
2022-10-02T09:25:26.149Z,60.00
2022-10-02T09:28:30.419Z,61.18
2022-10-02T09:31:15.319Z,60.00
2022-10-02T09:34:09.765Z,64.46
2022-10-02T09:36:46.079Z,62.25
2022-10-02T09:39:25.325Z,59.71
2022-10-02T09:42:00.240Z,65.70
2022-10-02T09:45:04.127Z,61.31
2022-10-02T09:48:22.842Z,59.52
2022-10-02T09:51:13.862Z,61.59
2022-10-02T09:54:15.675Z,56.79
2022-10-02T09:57:04.190Z,54.50
2022-10-02T09:59:58.425Z,57.00
2022-10-02T10:02:34.271Z,59.49
2022-10-02T10:05:09.059Z,57.88
2022-10-02T10:08:23.107Z,60.77
2022-10-02T10:11:19.272Z,63.00
2022-10-02T10:14:10.602Z,57.88
2022-10-02T10:17:05.853Z,55.81
2022-10-02T10:19:50.871Z,60.72
2022-10-02T10:22:35.642Z,58.99
2022-10-02T10:25:28.541Z,57.54
2022-10-02T10:28:19.739Z,64.04
2022-10-02T10:31:08.266Z,66.90
2022-10-02T10:33:50.452Z,64.99
2022-10-02T10:36:46.712Z,61.59
2022-10-02T10:39:35.802Z,62.63
2022-10-02T10:42:14.779Z,62.02
2022-10-02T10:44:50.687Z,61.89
2022-10-02T10:47:43.914Z,66.62
2022-10-02T10:50:38.960Z,70.27
2022-10-02T10:53:24.379Z,66.71
2022-10-02T10:56:09.829Z,67.76
2022-10-02T10:58:55.103Z,69.53
2022-10-02T11:01:43.192Z,68.41
2022-10-02T11:04:28.094Z,67.94
2022-10-02T11:07:09.471Z,68.45
2022-10-02T11:09:39.089Z,66.98
2022-10-02T11:13:03.375Z,67.28
2022-10-02T11:15:59.431Z,65.98
2022-10-02T11:18:44.496Z,70.37
2022-10-02T11:21:35.088Z,69.59
2022-10-02T11:24:29.814Z,69.64
2022-10-02T11:27:36.090Z,70.82
2022-10-02T11:30:21.132Z,68.85
2022-10-02T11:33:11.054Z,65.86
2022-10-02T11:36:22.623Z,65.28
2022-10-02T11:39:20.021Z,72.25
2022-10-02T11:42:10.152Z,67.38
2022-10-02T11:44:51.811Z,70.37
2022-10-02T11:47:21.331Z,69.59
2022-10-02T11:50:05.440Z,69.54
2022-10-02T11:52:45.939Z,69.84
2022-10-02T11:55:22.388Z,72.05
2022-10-02T11:58:16.626Z,72.10
2022-10-02T12:01:18.056Z,72.37
2022-10-02T12:03:56.940Z,72.64
2022-10-02T12:06:44.170Z,72.71
2022-10-02T12:09:25.606Z,72.73
2022-10-02T12:11:53.347Z,72.94
2022-10-02T12:14:46.050Z,75.16
2022-10-02T12:17:53.385Z,75.51
2022-10-02T12:20:38.552Z,78.08
2022-10-02T12:23:39.052Z,76.20
2022-10-02T12:26:38.463Z,77.97
2022-10-02T12:29:59.520Z,79.12
2022-10-02T12:33:03.323Z,80.14
2022-10-02T12:35:44.831Z,80.40
2022-10-02T12:38:47.820Z,80.88
2022-10-02T12:41:39.320Z,82.79
2022-10-02T12:44:38.303Z,82.19
2022-10-02T12:47:20.529Z,82.74
2022-10-02T12:49:59.760Z,85.70
2022-10-02T12:52:59.829Z,89.07
2022-10-02T12:55:53.772Z,92.53
2022-10-02T12:58:46.696Z,95.41
2022-10-02T13:01:55.162Z,95.09
2022-10-02T13:04:58.198Z,96.69
2022-10-02T13:07:43.088Z,95.16
2022-10-02T13:10:37.340Z,95.87
2022-10-02T13:13:06.852Z,95.94
2022-10-02T13:15:54.922Z,96.38
2022-10-02T13:18:25.555Z,94.70
2022-10-02T13:21:12.340Z,94.00
2022-10-02T13:24:00.599Z,93.53
2022-10-02T13:26:36.957Z,93.35
2022-10-02T13:29:19.433Z,91.13
2022-10-02T13:32:04.891Z,90.05
2022-10-02T13:35:14.353Z,93.66
2022-10-02T13:38:18.677Z,91.68
2022-10-02T13:40:51.612Z,91.54
2022-10-02T13:43:36.990Z,89.32
2022-10-02T13:46:20.380Z,88.60
2022-10-02T13:49:09.361Z,87.19
2022-10-02T13:52:10.052Z,85.54
2022-10-02T13:54:58.687Z,84.77
2022-10-02T13:57:44.304Z,79.34
2022-10-02T14:00:37.466Z,80.42
2022-10-02T14:03:20.466Z,81.99
2022-10-02T14:05:47.244Z,79.32
2022-10-02T14:08:33.248Z,81.49
2022-10-02T14:11:13.111Z,81.53
2022-10-02T14:14:18.084Z,81.90
2022-10-02T14:16:44.993Z,81.72
2022-10-02T14:19:30.684Z,80.46
2022-10-02T14:22:28.263Z,81.60
2022-10-02T14:25:27.777Z,79.42
2022-10-02T14:28:09.459Z,82.15
2022-10-02T14:30:45.105Z,82.95
2022-10-02T14:33:39.652Z,83.69
2022-10-02T14:36:25.434Z,83.15
2022-10-02T14:39:11.075Z,82.34
2022-10-02T14:42:15.373Z,85.80
2022-10-02T14:44:53.333Z,85.38
2022-10-02T14:47:26.522Z,86.58
2022-10-02T14:50:20.975Z,88.25
2022-10-02T14:53:09.103Z,89.76
2022-10-02T14:55:49.292Z,90.42
2022-10-02T14:58:26.921Z,93.00
2022-10-02T15:01:22.607Z,91.18
2022-10-02T15:04:23.802Z,91.69
2022-10-02T15:07:07.076Z,91.68
2022-10-02T15:09:39.194Z,93.25
2022-10-02T15:12:08.660Z,95.26
2022-10-02T15:14:47.968Z,96.06
2022-10-02T15:17:45.374Z,96.93
2022-10-02T15:20:34.268Z,96.99
2022-10-02T15:23:41.576Z,97.35
2022-10-02T15:26:59.400Z,100.00
2022-10-02T15:30:07.745Z,100.00
2022-10-02T15:32:34.968Z,100.00
2022-10-02T15:35:23.529Z,100.00
2022-10-02T15:38:25.555Z,100.00
2022-10-02T15:41:00.956Z,100.00
2022-10-02T15:43:46.285Z,100.00
2022-10-02T15:46:33.411Z,100.00
2022-10-02T15:49:53.456Z,100.00
2022-10-02T15:52:30.548Z,100.00
2022-10-02T15:55:20.903Z,100.00
2022-10-02T15:58:06.088Z,100.00
2022-10-02T16:01:00.938Z,100.00
2022-10-02T16:03:41.737Z,100.00
2022-10-02T16:06:53.757Z,100.00
2022-10-02T16:09:38.857Z,100.00
2022-10-02T16:12:27.411Z,100.00
2022-10-02T16:15:22.083Z,100.00
2022-10-02T16:18:07.923Z,100.00
2022-10-02T16:20:59.059Z,100.00
2022-10-02T16:23:40.603Z,100.00
2022-10-02T16:26:14.942Z,100.00
2022-10-02T16:28:54.077Z,100.00
2022-10-02T16:31:46.148Z,100.00
2022-10-02T16:34:42.139Z,100.00
2022-10-02T16:37:33.090Z,100.00
2022-10-02T16:40:03.385Z,100.00
2022-10-02T16:42:53.406Z,100.00
2022-10-02T16:46:12.241Z,100.00
2022-10-02T16:48:59.234Z,100.00
2022-10-02T16:51:57.914Z,100.00
2022-10-02T16:54:45.109Z,100.00
2022-10-02T16:57:20.571Z,100.00
2022-10-02T16:59:47.483Z,100.00
2022-10-02T17:02:25.988Z,100.00
2022-10-02T17:04:58.704Z,100.00
2022-10-02T17:07:30.082Z,100.00
2022-10-02T17:10:31.410Z,100.00
2022-10-02T17:13:12.628Z,100.00
2022-10-02T17:15:55.331Z,100.00
2022-10-02T17:18:27.968Z,100.00
2022-10-02T17:21:03.829Z,100.00
2022-10-02T17:23:55.584Z,100.00
2022-10-02T17:26:28.492Z,100.00
2022-10-02T17:29:17.671Z,100.00
2022-10-02T17:31:53.502Z,100.00
2022-10-02T17:34:26.104Z,100.00
2022-10-02T17:37:10.007Z,100.00
2022-10-02T17:39:42.500Z,100.00
2022-10-02T17:42:24.505Z,100.00
2022-10-02T17:45:26.629Z,100.00
2022-10-02T17:48:07.588Z,100.00
2022-10-02T17:50:46.692Z,100.00
2022-10-02T17:53:57.221Z,100.00
2022-10-02T17:56:50.910Z,100.00
2022-10-02T17:59:40.348Z,100.00
2022-10-02T18:02:14.454Z,100.00
2022-10-02T18:04:59.457Z,100.00
2022-10-02T18:08:03.960Z,100.00
2022-10-02T18:11:02.961Z,100.00
2022-10-02T18:13:42.698Z,100.00
2022-10-02T18:16:28.309Z,100.00
2022-10-02T18:19:32.691Z,100.00
2022-10-02T18:22:14.420Z,100.00
2022-10-02T18:24:52.213Z,100.00
2022-10-02T18:27:49.938Z,100.00
2022-10-02T18:30:20.860Z,100.00
2022-10-02T18:32:47.783Z,100.00
2022-10-02T18:35:22.960Z,100.00
2022-10-02T18:37:57.874Z,100.00
2022-10-02T18:40:35.263Z,100.00
2022-10-02T18:43:11.526Z,100.00
2022-10-02T18:45:48.814Z,100.00
2022-10-02T18:48:34.049Z,100.00
2022-10-02T18:51:15.760Z,100.00
2022-10-02T18:53:57.572Z,100.00
2022-10-02T18:57:01.750Z,100.00
2022-10-02T18:59:46.846Z,100.00
2022-10-02T19:02:38.415Z,100.00
2022-10-02T19:05:08.066Z,100.00
2022-10-02T19:08:06.327Z,100.00
2022-10-02T19:10:33.037Z,100.00
2022-10-02T19:13:21.824Z,100.00
2022-10-02T19:15:52.519Z,100.00
2022-10-02T19:18:21.130Z,100.00
2022-10-02T19:20:59.371Z,100.00
2022-10-02T19:23:28.931Z,100.00
2022-10-02T19:25:58.795Z,100.00
2022-10-02T19:28:28.847Z,100.00
2022-10-02T19:31:06.280Z,100.00
2022-10-02T19:33:41.386Z,100.00
2022-10-02T19:36:16.169Z,100.00
2022-10-02T19:38:45.049Z,100.00
2022-10-02T19:41:15.651Z,100.00
2022-10-02T19:43:48.372Z,100.00
2022-10-02T19:46:17.042Z,100.00
2022-10-02T19:48:44.209Z,100.00
2022-10-02T19:51:20.550Z,100.00
2022-10-02T19:54:02.043Z,100.00
2022-10-02T19:56:41.228Z,100.00
2022-10-02T19:59:26.342Z,100.00
2022-10-02T20:01:55.467Z,100.00
2022-10-02T20:04:25.973Z,100.00
2022-10-02T20:06:57.079Z,100.00
2022-10-02T20:09:38.404Z,100.00
2022-10-02T20:12:14.780Z,100.00
2022-10-02T20:15:01.222Z,100.00
2022-10-02T20:17:27.985Z,100.00
2022-10-02T20:19:58.016Z,100.00
2022-10-02T20:22:34.518Z,100.00
2022-10-02T20:25:11.723Z,100.00
2022-10-02T20:27:44.361Z,100.00
2022-10-02T20:30:19.582Z,100.00
2022-10-02T20:33:13.361Z,100.00
2022-10-02T20:35:45.591Z,100.00
2022-10-02T20:38:23.762Z,100.00
2022-10-02T20:40:53.500Z,100.00
2022-10-02T20:43:26.310Z,100.00
2022-10-02T20:46:28.249Z,100.00
2022-10-02T20:49:09.674Z,100.00
2022-10-02T20:52:02.030Z,100.00
2022-10-02T20:54:54.381Z,100.00
2022-10-02T20:58:00.037Z,100.00
2022-10-02T21:00:33.354Z,100.00
2022-10-02T21:03:21.471Z,100.00
2022-10-02T21:06:16.139Z,100.00
2022-10-02T21:09:01.752Z,100.00
2022-10-02T21:11:47.008Z,100.00
2022-10-02T21:14:43.583Z,100.00
2022-10-02T21:17:31.963Z,100.00
2022-10-02T21:20:53.591Z,100.00
2022-10-02T21:23:45.301Z,100.00
2022-10-02T21:26:31.731Z,100.00
2022-10-02T21:29:26.402Z,100.00
2022-10-02T21:32:23.029Z,100.00
2022-10-02T21:35:31.702Z,100.00
2022-10-02T21:38:19.933Z,100.00
2022-10-02T21:41:15.825Z,100.00
2022-10-02T21:43:54.791Z,100.00
2022-10-02T21:46:41.477Z,100.00
2022-10-02T21:49:41.445Z,100.00
2022-10-02T21:52:13.994Z,100.00
2022-10-02T21:55:35.142Z,100.00
2022-10-02T21:58:29.416Z,100.00
2022-10-02T22:01:42.643Z,100.00
2022-10-02T22:04:33.545Z,100.00
2022-10-02T22:07:22.518Z,100.00
2022-10-02T22:10:12.856Z,100.00
2022-10-02T22:12:54.869Z,100.00
2022-10-02T22:15:26.986Z,100.00
2022-10-02T22:18:42.561Z,100.00
2022-10-02T22:21:23.926Z,100.00
2022-10-02T22:24:14.885Z,100.00
2022-10-02T22:27:03.329Z,100.00
2022-10-02T22:29:47.489Z,100.00
2022-10-02T22:32:47.433Z,100.00
2022-10-02T22:35:21.185Z,100.00
2022-10-02T22:38:14.673Z,100.00
2022-10-02T22:40:59.218Z,100.00
2022-10-02T22:43:49.633Z,100.00
2022-10-02T22:46:28.489Z,100.00
2022-10-02T22:49:04.870Z,100.00
2022-10-02T22:51:50.703Z,100.00
2022-10-02T22:54:36.064Z,100.00
2022-10-02T22:57:03.627Z,100.00
2022-10-02T22:59:39.144Z,100.00
2022-10-02T23:02:14.883Z,100.00
2022-10-02T23:04:57.435Z,100.00
2022-10-02T23:07:41.545Z,100.00
2022-10-02T23:10:11.150Z,100.00
2022-10-02T23:12:55.045Z,100.00
2022-10-02T23:15:47.101Z,100.00
2022-10-02T23:18:35.532Z,100.00
2022-10-02T23:21:18.337Z,100.00
2022-10-02T23:23:50.840Z,100.00
2022-10-02T23:26:21.557Z,100.00
2022-10-02T23:28:58.989Z,100.00
2022-10-02T23:31:42.382Z,100.00
2022-10-02T23:34:39.876Z,100.00
2022-10-02T23:37:28.125Z,100.00
2022-10-02T23:40:50.301Z,100.00
2022-10-02T23:43:25.744Z,100.00
2022-10-02T23:46:02.792Z,100.00
2022-10-02T23:48:32.458Z,100.00
2022-10-02T23:51:14.259Z,100.00
2022-10-02T23:54:05.542Z,100.00
2022-10-02T23:57:09.246Z,100.00
